sensor_id;sensor_type;location;lat;lon;timestamp;temperature;humidity
35563;DHT22;21665;40.108;18.302;2022-09-24T00:01:33;13.70;99.90
35563;DHT22;21665;40.108;18.302;2022-09-24T00:04:03;13.70;99.90
35563;DHT22;21665;40.108;18.302;2022-09-24T00:06:35;13.70;99.90
35563;DHT22;21665;40.108;18.302;2022-09-24T00:09:03;13.70;99.90
35563;DHT22;21665;40.108;18.302;2022-09-24T00:11:30;13.70;99.90
35563;DHT22;21665;40.108;18.302;2022-09-24T00:13:58;13.70;99.90
35563;DHT22;21665;40.108;18.302;2022-09-24T00:16:26;13.70;99.90
35563;DHT22;21665;40.108;18.302;2022-09-24T00:18:54;13.80;99.90
35563;DHT22;21665;40.108;18.302;2022-09-24T00:21:24;13.80;99.90
35563;DHT22;21665;40.108;18.302;2022-09-24T00:23:58;13.80;99.90
35563;DHT22;21665;40.108;18.302;2022-09-24T00:26:25;13.80;99.90
35563;DHT22;21665;40.108;18.302;2022-09-24T00:29:12;13.80;99.90
35563;DHT22;21665;40.108;18.302;2022-09-24T00:31:39;13.70;99.90
35563;DHT22;21665;40.108;18.302;2022-09-24T00:34:05;13.80;99.90
35563;DHT22;21665;40.108;18.302;2022-09-24T00:36:32;13.80;99.90
35563;DHT22;21665;40.108;18.302;2022-09-24T00:38:59;13.80;99.90
35563;DHT22;21665;40.108;18.302;2022-09-24T00:41:30;13.80;99.90
35563;DHT22;21665;40.108;18.302;2022-09-24T00:44:00;13.70;99.90
35563;DHT22;21665;40.108;18.302;2022-09-24T00:49:06;13.70;99.90
35563;DHT22;21665;40.108;18.302;2022-09-24T00:51:36;13.70;99.90
35563;DHT22;21665;40.108;18.302;2022-09-24T00:54:07;13.70;99.90
35563;DHT22;21665;40.108;18.302;2022-09-24T00:56:38;13.60;99.90
35563;DHT22;21665;40.108;18.302;2022-09-24T00:59:14;13.50;99.90
35563;DHT22;21665;40.108;18.302;2022-09-24T01:01:46;13.40;99.90
35563;DHT22;21665;40.108;18.302;2022-09-24T01:04:14;13.20;99.90
35563;DHT22;21665;40.108;18.302;2022-09-24T01:06:41;13.00;99.90
35563;DHT22;21665;40.108;18.302;2022-09-24T01:09:08;12.90;99.90
35563;DHT22;21665;40.108;18.302;2022-09-24T01:12:01;12.80;99.90
35563;DHT22;21665;40.108;18.302;2022-09-24T01:28:31;12.70;99.90
35563;DHT22;21665;40.108;18.302;2022-09-24T01:31:04;12.70;99.90
35563;DHT22;21665;40.108;18.302;2022-09-24T01:33:34;12.60;99.90
35563;DHT22;21665;40.108;18.302;2022-09-24T01:36:03;12.60;99.90
35563;DHT22;21665;40.108;18.302;2022-09-24T01:38:41;12.60;99.90
35563;DHT22;21665;40.108;18.302;2022-09-24T01:41:10;12.50;99.90
35563;DHT22;21665;40.108;18.302;2022-09-24T01:43:42;12.50;99.90
35563;DHT22;21665;40.108;18.302;2022-09-24T01:46:10;12.40;99.90
35563;DHT22;21665;40.108;18.302;2022-09-24T01:48:39;12.40;99.90
35563;DHT22;21665;40.108;18.302;2022-09-24T01:51:29;12.40;99.90
35563;DHT22;21665;40.108;18.302;2022-09-24T01:54:08;12.40;99.90
35563;DHT22;21665;40.108;18.302;2022-09-24T01:57:02;12.40;99.90
35563;DHT22;21665;40.108;18.302;2022-09-24T01:59:38;12.40;99.90
35563;DHT22;21665;40.108;18.302;2022-09-24T02:02:16;12.30;99.90
35563;DHT22;21665;40.108;18.302;2022-09-24T02:04:50;12.30;99.90
35563;DHT22;21665;40.108;18.302;2022-09-24T02:07:38;12.20;99.90
35563;DHT22;21665;40.108;18.302;2022-09-24T02:10:16;12.10;99.90
35563;DHT22;21665;40.108;18.302;2022-09-24T02:12:48;12.10;99.90
35563;DHT22;21665;40.108;18.302;2022-09-24T02:15:26;12.00;99.90
35563;DHT22;21665;40.108;18.302;2022-09-24T02:17:56;12.00;99.90
35563;DHT22;21665;40.108;18.302;2022-09-24T02:20:27;12.00;99.90
35563;DHT22;21665;40.108;18.302;2022-09-24T02:22:55;12.10;99.90
35563;DHT22;21665;40.108;18.302;2022-09-24T02:25:45;12.10;99.90
35563;DHT22;21665;40.108;18.302;2022-09-24T02:28:17;12.10;99.90
35563;DHT22;21665;40.108;18.302;2022-09-24T02:30:55;12.10;99.90
35563;DHT22;21665;40.108;18.302;2022-09-24T02:33:24;12.10;99.90
35563;DHT22;21665;40.108;18.302;2022-09-24T02:36:10;12.10;99.90
35563;DHT22;21665;40.108;18.302;2022-09-24T02:38:38;12.00;99.90
35563;DHT22;21665;40.108;18.302;2022-09-24T02:41:05;12.00;99.90
35563;DHT22;21665;40.108;18.302;2022-09-24T02:43:33;12.00;99.90
35563;DHT22;21665;40.108;18.302;2022-09-24T02:46:01;12.00;99.90
35563;DHT22;21665;40.108;18.302;2022-09-24T02:48:28;12.00;99.90
35563;DHT22;21665;40.108;18.302;2022-09-24T02:50:54;12.00;99.90
35563;DHT22;21665;40.108;18.302;2022-09-24T02:53:24;12.00;99.90
35563;DHT22;21665;40.108;18.302;2022-09-24T02:55:50;12.00;99.90
35563;DHT22;21665;40.108;18.302;2022-09-24T02:58:17;11.90;99.90
35563;DHT22;21665;40.108;18.302;2022-09-24T03:00:43;11.90;99.90
35563;DHT22;21665;40.108;18.302;2022-09-24T03:03:10;11.90;99.90
35563;DHT22;21665;40.108;18.302;2022-09-24T03:05:36;11.90;99.90
35563;DHT22;21665;40.108;18.302;2022-09-24T03:08:03;11.90;99.90
35563;DHT22;21665;40.108;18.302;2022-09-24T03:10:33;11.90;99.90
35563;DHT22;21665;40.108;18.302;2022-09-24T03:13:00;11.90;99.90
35563;DHT22;21665;40.108;18.302;2022-09-24T03:15:29;11.80;99.90
35563;DHT22;21665;40.108;18.302;2022-09-24T03:17:56;11.80;99.90
35563;DHT22;21665;40.108;18.302;2022-09-24T03:20:23;11.80;99.90
35563;DHT22;21665;40.108;18.302;2022-09-24T03:23:01;11.80;99.90
35563;DHT22;21665;40.108;18.302;2022-09-24T03:25:28;11.80;99.90
35563;DHT22;21665;40.108;18.302;2022-09-24T03:27:55;11.80;99.90
35563;DHT22;21665;40.108;18.302;2022-09-24T03:30:21;11.80;99.90
35563;DHT22;21665;40.108;18.302;2022-09-24T03:33:06;11.80;99.90
35563;DHT22;21665;40.108;18.302;2022-09-24T03:35:32;11.80;99.90
35563;DHT22;21665;40.108;18.302;2022-09-24T03:37:59;11.70;99.90
35563;DHT22;21665;40.108;18.302;2022-09-24T03:40:25;11.70;99.90
35563;DHT22;21665;40.108;18.302;2022-09-24T03:42:52;11.60;99.90
35563;DHT22;21665;40.108;18.302;2022-09-24T03:45:19;11.60;99.90
35563;DHT22;21665;40.108;18.302;2022-09-24T03:47:45;11.50;99.90
35563;DHT22;21665;40.108;18.302;2022-09-24T03:50:12;11.40;99.90
35563;DHT22;21665;40.108;18.302;2022-09-24T03:52:39;11.40;99.90
35563;DHT22;21665;40.108;18.302;2022-09-24T03:55:29;11.40;99.90
35563;DHT22;21665;40.108;18.302;2022-09-24T03:57:57;11.40;99.90
35563;DHT22;21665;40.108;18.302;2022-09-24T04:00:24;11.40;99.90
35563;DHT22;21665;40.108;18.302;2022-09-24T04:02:54;11.40;99.90
35563;DHT22;21665;40.108;18.302;2022-09-24T04:05:20;11.40;99.90
35563;DHT22;21665;40.108;18.302;2022-09-24T04:07:47;11.50;99.90
35563;DHT22;21665;40.108;18.302;2022-09-24T04:10:14;11.50;99.90
35563;DHT22;21665;40.108;18.302;2022-09-24T04:12:40;11.40;99.90
35563;DHT22;21665;40.108;18.302;2022-09-24T04:15:09;11.40;99.90
35563;DHT22;21665;40.108;18.302;2022-09-24T04:17:37;11.40;99.90
35563;DHT22;21665;40.108;18.302;2022-09-24T04:20:04;11.40;99.90
35563;DHT22;21665;40.108;18.302;2022-09-24T04:22:31;11.40;99.90
35563;DHT22;21665;40.108;18.302;2022-09-24T04:24:57;11.40;99.90
35563;DHT22;21665;40.108;18.302;2022-09-24T04:27:24;11.20;99.90
35563;DHT22;21665;40.108;18.302;2022-09-24T04:29:50;11.10;99.90
35563;DHT22;21665;40.108;18.302;2022-09-24T04:32:22;11.10;99.90
35563;DHT22;21665;40.108;18.302;2022-09-24T04:34:48;11.10;99.90
35563;DHT22;21665;40.108;18.302;2022-09-24T04:37:15;11.00;99.90
35563;DHT22;21665;40.108;18.302;2022-09-24T04:39:42;11.00;99.90
35563;DHT22;21665;40.108;18.302;2022-09-24T04:42:08;11.00;99.90
35563;DHT22;21665;40.108;18.302;2022-09-24T04:44:35;11.00;99.90
35563;DHT22;21665;40.108;18.302;2022-09-24T04:47:01;11.00;99.90
35563;DHT22;21665;40.108;18.302;2022-09-24T04:49:31;11.00;99.90
35563;DHT22;21665;40.108;18.302;2022-09-24T04:51:58;11.00;99.90
35563;DHT22;21665;40.108;18.302;2022-09-24T04:54:28;11.00;99.90
35563;DHT22;21665;40.108;18.302;2022-09-24T04:56:55;11.10;99.90
35563;DHT22;21665;40.108;18.302;2022-09-24T04:59:22;11.10;99.90
35563;DHT22;21665;40.108;18.302;2022-09-24T05:01:48;11.20;99.90
35563;DHT22;21665;40.108;18.302;2022-09-24T05:04:15;11.40;99.90
35563;DHT22;21665;40.108;18.302;2022-09-24T05:06:42;11.50;99.90
35563;DHT22;21665;40.108;18.302;2022-09-24T05:09:08;11.50;99.90
35563;DHT22;21665;40.108;18.302;2022-09-24T05:11:35;11.50;99.90
35563;DHT22;21665;40.108;18.302;2022-09-24T05:14:01;11.60;99.90
35563;DHT22;21665;40.108;18.302;2022-09-24T05:16:28;11.70;99.90
35563;DHT22;21665;40.108;18.302;2022-09-24T05:18:56;11.90;99.90
35563;DHT22;21665;40.108;18.302;2022-09-24T05:21:26;12.20;99.90
35563;DHT22;21665;40.108;18.302;2022-09-24T05:23:53;12.50;99.90
35563;DHT22;21665;40.108;18.302;2022-09-24T05:26:19;13.30;99.90
35563;DHT22;21665;40.108;18.302;2022-09-24T05:29:05;14.30;99.90
35563;DHT22;21665;40.108;18.302;2022-09-24T05:31:34;15.70;99.90
35563;DHT22;21665;40.108;18.302;2022-09-24T05:34:05;17.00;99.90
35563;DHT22;21665;40.108;18.302;2022-09-24T05:36:31;18.20;99.90
35563;DHT22;21665;40.108;18.302;2022-09-24T05:38:58;18.80;99.90
35563;DHT22;21665;40.108;18.302;2022-09-24T05:41:25;20.20;99.90
35563;DHT22;21665;40.108;18.302;2022-09-24T05:43:52;21.50;99.90
35563;DHT22;21665;40.108;18.302;2022-09-24T05:46:18;22.00;99.90
35563;DHT22;21665;40.108;18.302;2022-09-24T05:48:45;22.00;99.90
35563;DHT22;21665;40.108;18.302;2022-09-24T05:51:11;21.40;99.90
35563;DHT22;21665;40.108;18.302;2022-09-24T05:53:38;21.30;99.90
35563;DHT22;21665;40.108;18.302;2022-09-24T05:56:05;21.60;99.90
35563;DHT22;21665;40.108;18.302;2022-09-24T05:58:32;22.30;99.90
35563;DHT22;21665;40.108;18.302;2022-09-24T06:00:59;22.00;99.90
35563;DHT22;21665;40.108;18.302;2022-09-24T06:03:33;21.60;99.90
35563;DHT22;21665;40.108;18.302;2022-09-24T06:06:00;21.60;99.90
35563;DHT22;21665;40.108;18.302;2022-09-24T06:08:31;21.90;99.90
35563;DHT22;21665;40.108;18.302;2022-09-24T06:11:05;22.10;99.90
35563;DHT22;21665;40.108;18.302;2022-09-24T06:13:34;22.20;99.90
35563;DHT22;21665;40.108;18.302;2022-09-24T06:16:08;22.60;99.90
35563;DHT22;21665;40.108;18.302;2022-09-24T06:18:42;23.00;99.90
35563;DHT22;21665;40.108;18.302;2022-09-24T06:21:14;23.10;99.90
35563;DHT22;21665;40.108;18.302;2022-09-24T06:23:43;23.00;99.90
35563;DHT22;21665;40.108;18.302;2022-09-24T06:26:13;23.00;99.90
35563;DHT22;21665;40.108;18.302;2022-09-24T06:28:40;22.90;99.90
35563;DHT22;21665;40.108;18.302;2022-09-24T06:31:08;23.70;99.90
35563;DHT22;21665;40.108;18.302;2022-09-24T06:33:37;23.50;99.90
35563;DHT22;21665;40.108;18.302;2022-09-24T06:36:06;23.30;99.90
35563;DHT22;21665;40.108;18.302;2022-09-24T06:38:33;23.40;99.90
35563;DHT22;21665;40.108;18.302;2022-09-24T06:43:36;23.20;99.90
35563;DHT22;21665;40.108;18.302;2022-09-24T06:46:03;23.60;99.90
35563;DHT22;21665;40.108;18.302;2022-09-24T06:48:30;23.70;99.90
35563;DHT22;21665;40.108;18.302;2022-09-24T06:50:56;24.30;99.90
35563;DHT22;21665;40.108;18.302;2022-09-24T06:53:23;24.50;99.90
35563;DHT22;21665;40.108;18.302;2022-09-24T06:55:50;24.50;99.90
35563;DHT22;21665;40.108;18.302;2022-09-24T06:58:18;25.60;99.90
35563;DHT22;21665;40.108;18.302;2022-09-24T07:00:53;25.80;99.90
35563;DHT22;21665;40.108;18.302;2022-09-24T07:03:19;25.50;99.90
35563;DHT22;21665;40.108;18.302;2022-09-24T07:05:47;25.20;99.90
35563;DHT22;21665;40.108;18.302;2022-09-24T07:08:13;25.20;99.90
35563;DHT22;21665;40.108;18.302;2022-09-24T07:10:45;25.30;99.90
35563;DHT22;21665;40.108;18.302;2022-09-24T07:13:19;25.10;99.90
35563;DHT22;21665;40.108;18.302;2022-09-24T07:15:55;24.90;99.90
35563;DHT22;21665;40.108;18.302;2022-09-24T07:18:21;24.80;99.90
35563;DHT22;21665;40.108;18.302;2022-09-24T07:20:53;24.60;99.90
35563;DHT22;21665;40.108;18.302;2022-09-24T07:23:21;25.20;99.90
35563;DHT22;21665;40.108;18.302;2022-09-24T07:25:48;24.90;99.90
35563;DHT22;21665;40.108;18.302;2022-09-24T07:28:16;24.50;99.90
35563;DHT22;21665;40.108;18.302;2022-09-24T07:30:44;24.10;99.90
35563;DHT22;21665;40.108;18.302;2022-09-24T07:33:11;24.10;99.90
35563;DHT22;21665;40.108;18.302;2022-09-24T07:35:39;23.90;99.90
35563;DHT22;21665;40.108;18.302;2022-09-24T07:38:10;24.00;99.90
35563;DHT22;21665;40.108;18.302;2022-09-24T08:02:16;24.60;99.90
35563;DHT22;21665;40.108;18.302;2022-09-24T08:04:43;24.30;99.90
35563;DHT22;21665;40.108;18.302;2022-09-24T08:07:11;24.50;99.90
35563;DHT22;21665;40.108;18.302;2022-09-24T08:09:40;24.20;99.90
35563;DHT22;21665;40.108;18.302;2022-09-24T08:12:07;23.80;99.90
35563;DHT22;21665;40.108;18.302;2022-09-24T08:14:35;23.90;99.90
35563;DHT22;21665;40.108;18.302;2022-09-24T08:17:01;23.90;99.90
35563;DHT22;21665;40.108;18.302;2022-09-24T08:19:27;23.50;99.90
35563;DHT22;21665;40.108;18.302;2022-09-24T08:21:56;23.00;99.90
35563;DHT22;21665;40.108;18.302;2022-09-24T08:24:24;22.90;99.90
35563;DHT22;21665;40.108;18.302;2022-09-24T08:26:58;23.30;99.90
35563;DHT22;21665;40.108;18.302;2022-09-24T08:29:28;23.90;99.90
35563;DHT22;21665;40.108;18.302;2022-09-24T08:32:13;24.20;99.90
35563;DHT22;21665;40.108;18.302;2022-09-24T08:34:40;24.40;99.90
35563;DHT22;21665;40.108;18.302;2022-09-24T08:37:07;24.40;99.90
35563;DHT22;21665;40.108;18.302;2022-09-24T08:39:34;24.00;99.90
35563;DHT22;21665;40.108;18.302;2022-09-24T08:42:06;24.00;99.90
35563;DHT22;21665;40.108;18.302;2022-09-24T08:44:52;23.90;99.90
35563;DHT22;21665;40.108;18.302;2022-09-24T08:54:12;24.40;99.90
35563;DHT22;21665;40.108;18.302;2022-09-24T09:03:00;24.00;99.90
35563;DHT22;21665;40.108;18.302;2022-09-24T09:05:52;24.30;99.90
35563;DHT22;21665;40.108;18.302;2022-09-24T09:09:03;24.30;99.90
35563;DHT22;21665;40.108;18.302;2022-09-24T09:11:32;24.50;99.90
35563;DHT22;21665;40.108;18.302;2022-09-24T09:14:19;24.30;99.90
35563;DHT22;21665;40.108;18.302;2022-09-24T09:17:01;24.50;99.90
35563;DHT22;21665;40.108;18.302;2022-09-24T09:19:32;24.40;99.90
35563;DHT22;21665;40.108;18.302;2022-09-24T09:22:20;23.60;99.90
35563;DHT22;21665;40.108;18.302;2022-09-24T09:25:08;23.60;99.90
35563;DHT22;21665;40.108;18.302;2022-09-24T09:27:44;23.30;99.90
35563;DHT22;21665;40.108;18.302;2022-09-24T09:38:15;23.00;99.90
35563;DHT22;21665;40.108;18.302;2022-09-24T09:43:41;24.00;99.90
35563;DHT22;21665;40.108;18.302;2022-09-24T09:46:21;24.10;99.90
35563;DHT22;21665;40.108;18.302;2022-09-24T09:49:03;24.10;99.90
35563;DHT22;21665;40.108;18.302;2022-09-24T09:51:39;24.30;99.90
35563;DHT22;21665;40.108;18.302;2022-09-24T09:54:07;24.60;99.90
35563;DHT22;21665;40.108;18.302;2022-09-24T09:56:42;24.70;99.90
35563;DHT22;21665;40.108;18.302;2022-09-24T10:01:41;25.00;99.90
35563;DHT22;21665;40.108;18.302;2022-09-24T10:04:33;25.10;99.90
35563;DHT22;21665;40.108;18.302;2022-09-24T10:07:14;25.40;99.90
35563;DHT22;21665;40.108;18.302;2022-09-24T10:10:01;25.30;99.90
35563;DHT22;21665;40.108;18.302;2022-09-24T10:12:29;25.40;99.90
35563;DHT22;21665;40.108;18.302;2022-09-24T10:15:01;25.20;99.90
35563;DHT22;21665;40.108;18.302;2022-09-24T10:17:38;24.80;99.90
35563;DHT22;21665;40.108;18.302;2022-09-24T10:20:23;24.60;99.90
35563;DHT22;21665;40.108;18.302;2022-09-24T10:23:02;24.50;99.90
35563;DHT22;21665;40.108;18.302;2022-09-24T10:25:30;24.60;99.90
35563;DHT22;21665;40.108;18.302;2022-09-24T10:28:02;24.70;99.90
35563;DHT22;21665;40.108;18.302;2022-09-24T10:31:10;24.70;99.60
35563;DHT22;21665;40.108;18.302;2022-09-24T10:33:41;24.60;99.50
35563;DHT22;21665;40.108;18.302;2022-09-24T10:36:24;24.40;99.40
35563;DHT22;21665;40.108;18.302;2022-09-24T10:39:11;24.40;99.60
35563;DHT22;21665;40.108;18.302;2022-09-24T10:41:48;24.60;99.30
35563;DHT22;21665;40.108;18.302;2022-09-24T10:44:16;24.70;98.80
35563;DHT22;21665;40.108;18.302;2022-09-24T10:47:05;24.60;98.80
35563;DHT22;21665;40.108;18.302;2022-09-24T10:55:32;23.70;99.50
35563;DHT22;21665;40.108;18.302;2022-09-24T11:00:38;24.30;98.80
35563;DHT22;21665;40.108;18.302;2022-09-24T11:03:26;24.60;98.60
35563;DHT22;21665;40.108;18.302;2022-09-24T11:08:59;24.90;98.70
35563;DHT22;21665;40.108;18.302;2022-09-24T11:11:34;24.80;98.60
35563;DHT22;21665;40.108;18.302;2022-09-24T11:17:09;25.00;97.70
35563;DHT22;21665;40.108;18.302;2022-09-24T12:45:01;23.00;99.90
35563;DHT22;21665;40.108;18.302;2022-09-24T12:47:46;23.00;99.90
35563;DHT22;21665;40.108;18.302;2022-09-24T12:50:28;22.70;99.90
35563;DHT22;21665;40.108;18.302;2022-09-24T12:52:56;22.70;99.90
35563;DHT22;21665;40.108;18.302;2022-09-24T12:55:29;22.70;99.90
35563;DHT22;21665;40.108;18.302;2022-09-24T13:00:43;22.90;99.90
35563;DHT22;21665;40.108;18.302;2022-09-24T13:03:32;22.90;99.90
35563;DHT22;21665;40.108;18.302;2022-09-24T13:06:00;22.90;99.90
35563;DHT22;21665;40.108;18.302;2022-09-24T13:08:38;22.80;99.90
35563;DHT22;21665;40.108;18.302;2022-09-24T13:11:31;22.90;99.90
35563;DHT22;21665;40.108;18.302;2022-09-24T13:16:44;22.80;99.90
35563;DHT22;21665;40.108;18.302;2022-09-24T13:19:40;22.70;99.90
35563;DHT22;21665;40.108;18.302;2022-09-24T13:22:22;22.60;99.90
35563;DHT22;21665;40.108;18.302;2022-09-24T13:51:13;22.40;99.90
35563;DHT22;21665;40.108;18.302;2022-09-24T14:01:20;22.30;99.90
35563;DHT22;21665;40.108;18.302;2022-09-24T14:04:32;22.30;99.90
35563;DHT22;21665;40.108;18.302;2022-09-24T14:10:23;22.60;99.90
35563;DHT22;21665;40.108;18.302;2022-09-24T14:22:35;23.20;99.90
35563;DHT22;21665;40.108;18.302;2022-09-24T14:25:08;23.30;99.90
35563;DHT22;21665;40.108;18.302;2022-09-24T14:28:08;23.50;99.90
35563;DHT22;21665;40.108;18.302;2022-09-24T14:30:45;23.60;99.90
35563;DHT22;21665;40.108;18.302;2022-09-24T14:33:16;23.50;99.90
35563;DHT22;21665;40.108;18.302;2022-09-24T14:35:50;23.30;99.90
35563;DHT22;21665;40.108;18.302;2022-09-24T14:38:25;23.30;99.90
35563;DHT22;21665;40.108;18.302;2022-09-24T14:41:20;23.30;99.90
35563;DHT22;21665;40.108;18.302;2022-09-24T14:44:01;23.50;99.90
35563;DHT22;21665;40.108;18.302;2022-09-24T14:46:45;23.30;99.90
35563;DHT22;21665;40.108;18.302;2022-09-24T14:49:49;23.10;99.90
35563;DHT22;21665;40.108;18.302;2022-09-24T14:52:32;23.00;99.90
35563;DHT22;21665;40.108;18.302;2022-09-24T14:55:13;22.90;99.90
35563;DHT22;21665;40.108;18.302;2022-09-24T14:57:40;22.90;99.90
35563;DHT22;21665;40.108;18.302;2022-09-24T15:00:30;23.00;99.90
35563;DHT22;21665;40.108;18.302;2022-09-24T15:03:10;23.00;99.80
35563;DHT22;21665;40.108;18.302;2022-09-24T15:05:52;23.00;99.20
35563;DHT22;21665;40.108;18.302;2022-09-24T15:08:42;23.10;99.30
35563;DHT22;21665;40.108;18.302;2022-09-24T15:11:16;23.30;99.50
35563;DHT22;21665;40.108;18.302;2022-09-24T15:13:57;23.30;99.30
35563;DHT22;21665;40.108;18.302;2022-09-24T15:48:44;22.70;99.90
35563;DHT22;21665;40.108;18.302;2022-09-24T15:51:16;22.70;99.90
35563;DHT22;21665;40.108;18.302;2022-09-24T15:53:45;22.60;99.90
35563;DHT22;21665;40.108;18.302;2022-09-24T15:56:16;22.50;99.90
35563;DHT22;21665;40.108;18.302;2022-09-24T15:58:46;22.40;99.90
35563;DHT22;21665;40.108;18.302;2022-09-24T16:01:15;22.30;99.90
35563;DHT22;21665;40.108;18.302;2022-09-24T16:03:52;22.20;99.90
35563;DHT22;21665;40.108;18.302;2022-09-24T16:06:19;22.10;99.90
35563;DHT22;21665;40.108;18.302;2022-09-24T16:08:47;22.00;99.90
35563;DHT22;21665;40.108;18.302;2022-09-24T16:11:16;21.90;99.90
35563;DHT22;21665;40.108;18.302;2022-09-24T16:13:52;21.90;99.90
35563;DHT22;21665;40.108;18.302;2022-09-24T16:16:19;21.70;99.90
35563;DHT22;21665;40.108;18.302;2022-09-24T16:18:45;21.60;99.90
35563;DHT22;21665;40.108;18.302;2022-09-24T16:21:12;21.50;99.90
35563;DHT22;21665;40.108;18.302;2022-09-24T16:23:38;21.50;99.90
35563;DHT22;21665;40.108;18.302;2022-09-24T16:26:05;21.40;99.90
35563;DHT22;21665;40.108;18.302;2022-09-24T16:28:32;21.30;99.90
35563;DHT22;21665;40.108;18.302;2022-09-24T16:31:01;21.20;99.90
35563;DHT22;21665;40.108;18.302;2022-09-24T16:33:38;21.10;99.90
35563;DHT22;21665;40.108;18.302;2022-09-24T16:36:06;20.90;99.90
35563;DHT22;21665;40.108;18.302;2022-09-24T16:50:26;20.50;99.90
35563;DHT22;21665;40.108;18.302;2022-09-24T16:52:59;20.40;99.90
35563;DHT22;21665;40.108;18.302;2022-09-24T16:55:26;20.30;99.90
35563;DHT22;21665;40.108;18.302;2022-09-24T16:57:53;20.20;99.90
35563;DHT22;21665;40.108;18.302;2022-09-24T17:00:20;20.10;99.90
35563;DHT22;21665;40.108;18.302;2022-09-24T17:08:11;19.90;99.90
35563;DHT22;21665;40.108;18.302;2022-09-24T17:10:58;19.70;99.90
35563;DHT22;21665;40.108;18.302;2022-09-24T17:32:51;18.40;99.90
35563;DHT22;21665;40.108;18.302;2022-09-24T17:35:17;18.20;99.90
35563;DHT22;21665;40.108;18.302;2022-09-24T17:37:44;18.20;99.90
35563;DHT22;21665;40.108;18.302;2022-09-24T17:40:10;18.20;99.90
35563;DHT22;21665;40.108;18.302;2022-09-24T17:42:37;18.20;99.90
35563;DHT22;21665;40.108;18.302;2022-09-24T17:45:06;18.20;99.90
35563;DHT22;21665;40.108;18.302;2022-09-24T17:47:32;18.10;99.90
35563;DHT22;21665;40.108;18.302;2022-09-24T17:50:19;18.10;99.90
35563;DHT22;21665;40.108;18.302;2022-09-24T17:52:46;18.00;99.90
35563;DHT22;21665;40.108;18.302;2022-09-24T17:55:13;17.90;99.90
35563;DHT22;21665;40.108;18.302;2022-09-24T17:57:40;17.80;99.90
35563;DHT22;21665;40.108;18.302;2022-09-24T18:00:09;17.80;99.90
35563;DHT22;21665;40.108;18.302;2022-09-24T18:02:37;17.70;99.90
35563;DHT22;21665;40.108;18.302;2022-09-24T18:05:04;17.70;99.90
35563;DHT22;21665;40.108;18.302;2022-09-24T18:07:32;17.60;99.90
35563;DHT22;21665;40.108;18.302;2022-09-24T18:09:59;17.60;99.90
35563;DHT22;21665;40.108;18.302;2022-09-24T18:12:25;17.50;99.90
35563;DHT22;21665;40.108;18.302;2022-09-24T18:14:51;17.40;99.90
35563;DHT22;21665;40.108;18.302;2022-09-24T18:17:18;17.30;99.90
35563;DHT22;21665;40.108;18.302;2022-09-24T18:19:44;17.30;99.90
35563;DHT22;21665;40.108;18.302;2022-09-24T18:22:10;17.20;99.90
35563;DHT22;21665;40.108;18.302;2022-09-24T18:24:46;17.20;99.90
35563;DHT22;21665;40.108;18.302;2022-09-24T18:27:13;17.10;99.90
35563;DHT22;21665;40.108;18.302;2022-09-24T18:29:41;17.10;99.90
35563;DHT22;21665;40.108;18.302;2022-09-24T18:32:09;17.10;99.90
35563;DHT22;21665;40.108;18.302;2022-09-24T18:34:36;17.10;99.90
35563;DHT22;21665;40.108;18.302;2022-09-24T18:37:03;17.10;99.90
35563;DHT22;21665;40.108;18.302;2022-09-24T18:39:31;17.10;99.90
35563;DHT22;21665;40.108;18.302;2022-09-24T18:41:57;17.00;99.90
35563;DHT22;21665;40.108;18.302;2022-09-24T18:44:24;16.90;99.90
35563;DHT22;21665;40.108;18.302;2022-09-24T18:46:50;16.90;99.90
35563;DHT22;21665;40.108;18.302;2022-09-24T18:49:17;16.80;99.90
35563;DHT22;21665;40.108;18.302;2022-09-24T18:51:44;16.70;99.90
35563;DHT22;21665;40.108;18.302;2022-09-24T18:54:13;16.70;99.90
35563;DHT22;21665;40.108;18.302;2022-09-24T18:56:48;16.70;99.90
35563;DHT22;21665;40.108;18.302;2022-09-24T18:59:17;16.60;99.90
35563;DHT22;21665;40.108;18.302;2022-09-24T19:01:44;16.60;99.90
35563;DHT22;21665;40.108;18.302;2022-09-24T19:04:13;16.50;99.90
35563;DHT22;21665;40.108;18.302;2022-09-24T19:06:46;16.50;99.90
35563;DHT22;21665;40.108;18.302;2022-09-24T19:09:19;16.40;99.90
35563;DHT22;21665;40.108;18.302;2022-09-24T19:12:02;16.30;99.90
35563;DHT22;21665;40.108;18.302;2022-09-24T19:14:40;16.20;99.90
35563;DHT22;21665;40.108;18.302;2022-09-24T19:17:07;16.20;99.90
35563;DHT22;21665;40.108;18.302;2022-09-24T19:19:34;16.10;99.90
35563;DHT22;21665;40.108;18.302;2022-09-24T19:22:10;16.10;99.90
35563;DHT22;21665;40.108;18.302;2022-09-24T19:24:37;16.10;99.90
35563;DHT22;21665;40.108;18.302;2022-09-24T19:27:06;16.10;99.90
35563;DHT22;21665;40.108;18.302;2022-09-24T19:29:33;16.10;99.90
35563;DHT22;21665;40.108;18.302;2022-09-24T19:32:01;16.10;99.90
35563;DHT22;21665;40.108;18.302;2022-09-24T19:34:28;16.00;99.90
35563;DHT22;21665;40.108;18.302;2022-09-24T19:36:54;16.00;99.90
35563;DHT22;21665;40.108;18.302;2022-09-24T19:39:22;16.00;99.90
35563;DHT22;21665;40.108;18.302;2022-09-24T19:41:49;15.90;99.90
35563;DHT22;21665;40.108;18.302;2022-09-24T19:44:18;15.90;99.90
35563;DHT22;21665;40.108;18.302;2022-09-24T19:46:44;15.90;99.90
35563;DHT22;21665;40.108;18.302;2022-09-24T19:49:11;15.90;99.90
35563;DHT22;21665;40.108;18.302;2022-09-24T19:51:38;15.90;99.90
35563;DHT22;21665;40.108;18.302;2022-09-24T19:54:07;15.90;99.90
35563;DHT22;21665;40.108;18.302;2022-09-24T19:56:37;15.90;99.90
35563;DHT22;21665;40.108;18.302;2022-09-24T19:59:03;15.90;99.90
35563;DHT22;21665;40.108;18.302;2022-09-24T20:01:32;15.80;99.90
35563;DHT22;21665;40.108;18.302;2022-09-24T20:04:02;15.80;99.90
35563;DHT22;21665;40.108;18.302;2022-09-24T20:06:31;15.80;99.90
35563;DHT22;21665;40.108;18.302;2022-09-24T20:08:59;15.70;99.90
35563;DHT22;21665;40.108;18.302;2022-09-24T20:11:29;15.70;99.90
35563;DHT22;21665;40.108;18.302;2022-09-24T20:13:58;15.70;99.90
35563;DHT22;21665;40.108;18.302;2022-09-24T20:16:26;15.70;99.90
35563;DHT22;21665;40.108;18.302;2022-09-24T20:19:01;15.60;99.90
35563;DHT22;21665;40.108;18.302;2022-09-24T20:21:31;15.60;99.90
35563;DHT22;21665;40.108;18.302;2022-09-24T20:24:00;15.60;99.90
35563;DHT22;21665;40.108;18.302;2022-09-24T20:26:28;15.60;99.90
35563;DHT22;21665;40.108;18.302;2022-09-24T20:29:14;15.60;99.90
35563;DHT22;21665;40.108;18.302;2022-09-24T20:31:43;15.60;99.90